createdAt,value
2019-05-18T00:01:39.511Z,11.70
2019-05-18T00:04:09.308Z,11.70
2019-05-18T00:06:39.103Z,11.70
2019-05-18T00:09:09.689Z,11.60
2019-05-18T00:11:39.486Z,11.50
2019-05-18T00:14:12.488Z,11.40
2019-05-18T00:16:42.212Z,11.30
2019-05-18T00:19:11.970Z,11.30
2019-05-18T00:21:41.693Z,11.20
2019-05-18T00:24:11.772Z,11.30
2019-05-18T00:26:41.582Z,11.20
2019-05-18T00:29:11.368Z,11.20
2019-05-18T00:31:41.084Z,11.30
2019-05-18T00:34:10.944Z,11.20
2019-05-18T00:36:40.706Z,11.20
2019-05-18T00:39:10.825Z,11.10
2019-05-18T00:41:40.558Z,11.10
2019-05-18T00:44:10.382Z,11.10
2019-05-18T00:46:40.076Z,11.10
2019-05-18T00:49:09.905Z,11.10
2019-05-18T00:51:39.713Z,11.10
2019-05-18T00:54:09.540Z,11.00
2019-05-18T00:56:39.481Z,11.00
2019-05-18T00:59:09.610Z,10.90
2019-05-18T01:01:39.383Z,11.00
2019-05-18T01:04:09.161Z,10.90
2019-05-18T01:06:38.851Z,10.90
2019-05-18T01:09:08.770Z,10.70
2019-05-18T01:11:38.567Z,10.70
2019-05-18T01:14:08.450Z,10.60
2019-05-18T01:16:38.282Z,10.60
2019-05-18T01:19:08.110Z,10.60
2019-05-18T01:21:38.069Z,10.60
2019-05-18T01:24:08.090Z,10.60
2019-05-18T01:26:37.842Z,10.60
2019-05-18T01:29:07.959Z,10.60
2019-05-18T01:31:37.844Z,10.50
2019-05-18T01:34:07.770Z,10.50
2019-05-18T01:36:37.629Z,10.40
2019-05-18T01:39:08.259Z,10.50
2019-05-18T01:41:37.980Z,10.50
2019-05-18T01:44:07.738Z,10.50
2019-05-18T01:46:37.579Z,10.50
2019-05-18T01:49:07.297Z,10.50
2019-05-18T01:51:37.138Z,10.50
2019-05-18T01:54:06.976Z,10.50
2019-05-18T01:56:36.815Z,10.50
2019-05-18T01:59:06.466Z,10.50
2019-05-18T02:01:36.281Z,10.60
2019-05-18T02:04:06.159Z,10.60
2019-05-18T02:06:36.017Z,10.70
2019-05-18T02:09:08.496Z,10.70
2019-05-18T02:11:38.618Z,10.70
2019-05-18T02:14:08.510Z,10.70
2019-05-18T02:16:38.300Z,10.80
2019-05-18T02:19:08.103Z,10.80
2019-05-18T02:21:37.909Z,10.90
2019-05-18T02:24:07.866Z,10.90
2019-05-18T02:26:37.826Z,10.90
2019-05-18T02:29:07.676Z,11.00
2019-05-18T02:31:37.433Z,11.00
2019-05-18T02:34:07.210Z,11.00
2019-05-18T02:36:36.948Z,11.00
2019-05-18T02:39:08.339Z,11.00
2019-05-18T02:41:38.163Z,11.00
2019-05-18T02:44:08.335Z,11.00
2019-05-18T02:46:38.270Z,11.00
2019-05-18T02:49:08.136Z,11.00
2019-05-18T02:51:38.011Z,11.00
2019-05-18T02:54:07.914Z,11.00
2019-05-18T02:56:37.982Z,11.00
2019-05-18T02:59:07.887Z,11.00
2019-05-18T03:01:37.821Z,11.00
2019-05-18T03:04:07.898Z,11.00
2019-05-18T03:06:37.717Z,11.10
2019-05-18T03:09:08.009Z,11.10
2019-05-18T03:11:38.381Z,11.20
2019-05-18T03:14:08.266Z,11.20
2019-05-18T03:16:38.001Z,11.10
2019-05-18T03:19:09.105Z,11.20
2019-05-18T03:21:39.334Z,11.30
2019-05-18T03:24:09.211Z,11.20
2019-05-18T03:26:39.131Z,11.20
2019-05-18T03:29:08.968Z,11.20
2019-05-18T03:31:38.742Z,11.20
2019-05-18T03:34:08.567Z,11.20
2019-05-18T03:36:38.344Z,11.20
2019-05-18T03:39:08.122Z,11.20
2019-05-18T03:41:37.875Z,11.20
2019-05-18T03:44:07.558Z,11.20
2019-05-18T03:46:37.317Z,11.20
2019-05-18T03:49:23.575Z,11.20
2019-05-18T03:51:38.602Z,11.20
2019-05-18T03:54:08.375Z,11.20
2019-05-18T03:56:38.162Z,11.20
2019-05-18T03:59:08.008Z,11.20
2019-05-18T04:01:37.770Z,11.10
2019-05-18T04:04:07.644Z,11.10
2019-05-18T04:06:37.303Z,11.00
2019-05-18T04:09:07.737Z,11.00
2019-05-18T04:11:37.501Z,11.00
2019-05-18T04:14:08.380Z,11.00
2019-05-18T04:16:38.641Z,11.00
2019-05-18T04:19:08.462Z,11.00
2019-05-18T04:21:38.496Z,11.00
2019-05-18T04:24:09.704Z,11.00
2019-05-18T04:26:43.529Z,11.00
2019-05-18T04:29:13.320Z,11.00
2019-05-18T04:31:43.168Z,11.10
2019-05-18T04:34:12.967Z,11.20
2019-05-18T04:36:42.978Z,11.10
2019-05-18T04:39:12.797Z,11.20
2019-05-18T04:41:42.501Z,11.20
2019-05-18T04:44:12.179Z,11.20
2019-05-18T04:46:41.993Z,11.20
2019-05-18T04:49:11.836Z,11.40
2019-05-18T04:51:41.598Z,11.40
2019-05-18T04:54:11.550Z,11.40
2019-05-18T04:56:42.971Z,11.40
2019-05-18T04:59:12.787Z,11.40
2019-05-18T05:01:42.631Z,11.40
2019-05-18T05:04:12.668Z,11.40
2019-05-18T05:06:42.374Z,11.50
2019-05-18T05:09:12.224Z,11.50
2019-05-18T05:11:42.007Z,11.60
2019-05-18T05:14:11.788Z,11.60
2019-05-18T05:16:41.636Z,11.70
2019-05-18T05:19:11.474Z,11.90
2019-05-18T05:21:41.320Z,12.00
2019-05-18T05:24:11.269Z,12.10
2019-05-18T05:26:41.202Z,12.00
2019-05-18T05:29:10.955Z,12.10
2019-05-18T05:31:40.712Z,12.00
2019-05-18T05:34:10.624Z,12.10
2019-05-18T05:36:40.658Z,12.20
2019-05-18T05:39:11.819Z,12.40
2019-05-18T05:41:43.149Z,12.50
2019-05-18T05:44:12.986Z,12.40
2019-05-18T05:46:42.749Z,12.40
2019-05-18T05:49:12.693Z,12.60
2019-05-18T05:51:42.382Z,12.60
2019-05-18T05:54:12.213Z,12.60
2019-05-18T05:56:41.932Z,12.60
2019-05-18T05:59:11.833Z,12.60
2019-05-18T06:01:41.756Z,12.50
2019-05-18T06:04:11.665Z,12.50
2019-05-18T06:06:41.582Z,12.40
2019-05-18T06:09:11.484Z,12.40
2019-05-18T06:11:41.232Z,12.50
2019-05-18T06:14:11.236Z,12.50
2019-05-18T06:16:41.087Z,12.60
2019-05-18T06:19:11.040Z,12.70
2019-05-18T06:21:43.729Z,12.80
2019-05-18T06:24:13.654Z,12.80
2019-05-18T06:26:43.434Z,12.80
2019-05-18T06:29:13.353Z,12.90
2019-05-18T06:31:43.165Z,13.00
2019-05-18T06:34:13.137Z,13.10
2019-05-18T06:36:42.988Z,13.00
2019-05-18T06:39:12.929Z,13.10
2019-05-18T06:41:42.655Z,13.10
2019-05-18T06:44:12.364Z,13.20
2019-05-18T06:46:42.083Z,13.20
2019-05-18T06:49:11.955Z,13.30
2019-05-18T06:51:41.791Z,13.30
2019-05-18T06:54:11.536Z,13.40
2019-05-18T06:56:42.379Z,13.40
2019-05-18T06:59:12.762Z,13.70
2019-05-18T07:01:42.509Z,13.80
2019-05-18T07:04:12.322Z,13.90
2019-05-18T07:06:42.302Z,13.80
2019-05-18T07:09:14.389Z,13.70
2019-05-18T07:11:43.672Z,13.70
2019-05-18T07:14:25.001Z,13.70
2019-05-18T07:16:45.463Z,13.80
2019-05-18T07:19:15.118Z,13.80
2019-05-18T07:21:44.890Z,13.80
2019-05-18T07:24:15.010Z,13.90
2019-05-18T07:26:44.818Z,14.00
2019-05-18T07:29:14.725Z,13.90
2019-05-18T07:31:44.560Z,14.10
2019-05-18T07:34:14.461Z,14.10
2019-05-18T07:36:44.242Z,14.20
2019-05-18T07:39:14.228Z,14.20
2019-05-18T07:41:46.802Z,14.20
2019-05-18T07:44:15.871Z,14.30
2019-05-18T07:46:45.757Z,14.40
2019-05-18T07:49:15.796Z,14.50
2019-05-18T07:51:45.867Z,14.60
2019-05-18T07:54:16.100Z,14.70
2019-05-18T07:56:45.888Z,14.90
2019-05-18T07:59:16.358Z,14.90
2019-05-18T08:01:46.092Z,15.00
2019-05-18T08:04:15.908Z,15.30
2019-05-18T08:06:46.009Z,15.50
2019-05-18T08:09:15.734Z,15.40
2019-05-18T08:11:45.847Z,15.40
2019-05-18T08:14:15.837Z,15.50
2019-05-18T08:16:45.570Z,15.60
2019-05-18T08:19:15.711Z,15.50
2019-05-18T08:21:53.305Z,15.50
2019-05-18T08:24:17.051Z,15.60
2019-05-18T08:26:46.818Z,15.60
2019-05-18T08:29:16.773Z,15.60
2019-05-18T08:31:46.447Z,15.60
2019-05-18T08:34:16.298Z,15.60
2019-05-18T08:36:46.073Z,15.70
2019-05-18T08:39:16.097Z,15.80
2019-05-18T08:41:48.637Z,15.90
2019-05-18T08:44:17.347Z,15.90
2019-05-18T08:46:47.487Z,16.00
2019-05-18T08:49:17.312Z,16.30
2019-05-18T08:51:47.155Z,16.20
2019-05-18T08:54:16.960Z,16.30
2019-05-18T08:56:46.895Z,16.40
2019-05-18T08:59:16.701Z,16.40
2019-05-18T09:01:46.518Z,16.20
2019-05-18T09:04:16.384Z,16.30
2019-05-18T09:06:48.754Z,16.50
2019-05-18T09:09:20.214Z,16.70
2019-05-18T09:11:50.620Z,16.60
2019-05-18T09:14:21.826Z,16.60
2019-05-18T09:16:53.278Z,16.70
2019-05-18T09:19:23.004Z,16.70
2019-05-18T09:21:53.161Z,16.80
2019-05-18T09:24:22.975Z,17.00
2019-05-18T09:26:52.843Z,17.00
2019-05-18T09:29:22.751Z,17.10
2019-05-18T09:31:52.692Z,17.10
2019-05-18T09:34:22.561Z,16.90
2019-05-18T09:36:52.417Z,16.90
2019-05-18T09:39:22.599Z,17.00
2019-05-18T09:41:52.378Z,17.30
2019-05-18T09:44:22.218Z,17.50
2019-05-18T09:46:52.431Z,17.60
2019-05-18T09:49:23.485Z,17.70
2019-05-18T09:51:53.349Z,17.70
2019-05-18T09:54:23.252Z,17.70
2019-05-18T09:56:54.631Z,17.70
2019-05-18T09:59:24.550Z,17.90
2019-05-18T10:01:54.409Z,18.00
2019-05-18T10:04:24.201Z,18.10
2019-05-18T10:06:53.944Z,18.20
2019-05-18T10:09:23.957Z,18.50
2019-05-18T10:11:53.806Z,18.50
2019-05-18T10:14:23.670Z,18.50
2019-05-18T10:16:53.791Z,18.50
2019-05-18T10:19:23.564Z,18.50
2019-05-18T10:21:53.615Z,18.50
2019-05-18T10:24:23.467Z,18.40
2019-05-18T10:26:53.155Z,18.50
2019-05-18T10:29:23.058Z,18.40
2019-05-18T10:31:52.848Z,18.40
2019-05-18T10:34:22.944Z,18.50
2019-05-18T10:36:52.759Z,18.50
2019-05-18T10:39:22.810Z,18.60
2019-05-18T10:41:52.635Z,18.60
2019-05-18T10:44:22.648Z,18.60
2019-05-18T10:46:52.517Z,18.40
2019-05-18T10:49:22.584Z,18.50
2019-05-18T10:51:52.340Z,18.50
2019-05-18T10:54:22.232Z,18.60
2019-05-18T10:56:52.432Z,18.80
2019-05-18T10:59:22.194Z,19.00
2019-05-18T11:01:52.019Z,19.10
2019-05-18T11:04:21.952Z,19.30
2019-05-18T11:06:52.080Z,19.60
2019-05-18T11:09:22.021Z,19.60
2019-05-18T11:11:52.027Z,19.60
2019-05-18T11:14:21.817Z,19.60
2019-05-18T11:16:52.420Z,19.70
2019-05-18T11:19:22.180Z,20.00
2019-05-18T11:21:52.089Z,20.20
2019-05-18T11:24:21.908Z,20.40
2019-05-18T11:26:51.713Z,20.60
2019-05-18T11:29:23.476Z,20.80
2019-05-18T11:31:53.069Z,20.60
2019-05-18T11:34:22.819Z,20.40
2019-05-18T11:36:52.549Z,20.30
2019-05-18T11:39:22.316Z,20.20
2019-05-18T11:41:52.152Z,20.20
2019-05-18T11:44:21.952Z,20.10
2019-05-18T11:46:51.684Z,20.20
2019-05-18T11:49:21.444Z,20.30
2019-05-18T11:51:51.193Z,20.30
2019-05-18T11:54:20.974Z,20.40
2019-05-18T11:56:50.807Z,20.50
2019-05-18T11:59:20.743Z,20.50
2019-05-18T12:01:50.632Z,20.60
2019-05-18T12:04:20.503Z,20.70
2019-05-18T12:06:51.061Z,20.80
2019-05-18T12:09:20.887Z,21.00
2019-05-18T12:11:50.687Z,20.90
2019-05-18T12:14:20.525Z,20.80
2019-05-18T12:16:50.314Z,20.80
2019-05-18T12:19:20.250Z,20.90
2019-05-18T12:21:50.126Z,20.80
2019-05-18T12:24:19.936Z,20.70
2019-05-18T12:26:49.654Z,20.70
2019-05-18T12:29:19.510Z,20.60
2019-05-18T12:31:49.290Z,20.80
2019-05-18T12:34:18.962Z,20.80
2019-05-18T12:36:48.702Z,20.70
2019-05-18T12:39:18.363Z,20.70
2019-05-18T12:41:48.661Z,20.90
2019-05-18T12:44:18.589Z,21.00
2019-05-18T12:46:48.624Z,21.20
2019-05-18T12:49:18.473Z,21.30
2019-05-18T12:51:48.384Z,21.40
2019-05-18T12:54:29.294Z,21.40
2019-05-18T12:56:49.821Z,21.50
2019-05-18T12:59:19.622Z,21.60
2019-05-18T13:01:49.400Z,21.80
2019-05-18T13:04:19.259Z,21.80
2019-05-18T13:06:48.925Z,22.00
2019-05-18T13:09:18.715Z,22.10
2019-05-18T13:11:48.484Z,22.10
2019-05-18T13:14:18.383Z,22.30
2019-05-18T13:16:48.065Z,22.30
2019-05-18T13:19:17.843Z,22.40
2019-05-18T13:21:47.571Z,22.60
2019-05-18T13:24:17.330Z,22.80
2019-05-18T13:26:47.295Z,22.80
2019-05-18T13:29:17.104Z,23.00
2019-05-18T13:31:46.774Z,23.10
2019-05-18T13:34:16.545Z,23.30
2019-05-18T13:36:46.368Z,23.60
2019-05-18T13:39:16.071Z,23.70
2019-05-18T13:41:45.819Z,23.70
2019-05-18T13:44:15.802Z,23.80
2019-05-18T13:46:45.524Z,23.90
2019-05-18T13:49:15.205Z,24.00
2019-05-18T13:51:44.936Z,24.20
2019-05-18T13:54:14.632Z,24.40
2019-05-18T13:56:44.385Z,24.50
2019-05-18T13:59:14.126Z,24.50
2019-05-18T14:01:43.909Z,24.60
2019-05-18T14:04:13.929Z,24.70
2019-05-18T14:06:43.743Z,24.90
2019-05-18T14:09:13.621Z,25.20
2019-05-18T14:11:43.309Z,25.30
2019-05-18T14:14:13.100Z,25.10
2019-05-18T14:16:42.869Z,25.20
2019-05-18T14:19:12.683Z,25.30
2019-05-18T14:21:42.410Z,25.60
2019-05-18T14:24:12.151Z,25.80
2019-05-18T14:26:41.871Z,25.90
2019-05-18T14:29:11.906Z,26.00
2019-05-18T14:31:41.642Z,26.20
2019-05-18T14:34:11.513Z,26.10
2019-05-18T14:36:41.219Z,26.00
2019-05-18T14:39:10.989Z,26.10
2019-05-18T14:41:42.619Z,26.20
2019-05-18T14:44:12.394Z,26.40
2019-05-18T14:46:42.326Z,26.50
2019-05-18T14:49:13.732Z,26.80
2019-05-18T14:51:43.905Z,27.00
2019-05-18T14:54:13.708Z,27.00
2019-05-18T14:56:43.473Z,27.00
2019-05-18T14:59:13.427Z,27.00
2019-05-18T15:01:43.164Z,27.00
2019-05-18T15:04:12.994Z,27.00
2019-05-18T15:06:43.267Z,26.80
2019-05-18T15:09:13.120Z,26.90
2019-05-18T15:11:43.104Z,27.10
2019-05-18T15:14:14.037Z,27.30
2019-05-18T15:16:43.815Z,27.20
2019-05-18T15:19:13.567Z,27.00
2019-05-18T15:21:43.865Z,26.80
2019-05-18T15:24:13.689Z,26.50
2019-05-18T15:26:43.463Z,26.00
2019-05-18T15:29:14.283Z,25.60
2019-05-18T15:31:44.200Z,25.20
2019-05-18T15:34:16.904Z,25.00
2019-05-18T15:36:46.802Z,24.90
2019-05-18T15:39:16.754Z,24.70
2019-05-18T15:41:46.517Z,24.40
2019-05-18T15:44:16.228Z,24.00
2019-05-18T15:46:45.904Z,23.90
2019-05-18T15:49:15.772Z,23.50
2019-05-18T15:51:45.498Z,23.10
2019-05-18T15:54:15.482Z,22.60
2019-05-18T15:56:45.147Z,22.30
2019-05-18T15:59:14.900Z,22.10
2019-05-18T16:01:44.791Z,21.50
2019-05-18T16:04:14.758Z,20.50
2019-05-18T16:06:44.486Z,19.80
2019-05-18T16:09:14.202Z,19.40
2019-05-18T16:11:43.882Z,19.10
2019-05-18T16:14:13.622Z,18.70
2019-05-18T16:16:43.390Z,18.60
2019-05-18T16:19:13.148Z,18.50
2019-05-18T16:21:42.912Z,18.50
2019-05-18T16:24:12.744Z,18.40
2019-05-18T16:26:42.442Z,18.30
2019-05-18T16:29:12.243Z,18.10
2019-05-18T16:31:41.979Z,18.10
2019-05-18T16:34:11.794Z,18.10
2019-05-18T16:36:41.636Z,18.10
2019-05-18T16:39:13.039Z,18.10
2019-05-18T16:41:42.746Z,18.10
2019-05-18T16:44:12.436Z,18.10
2019-05-18T16:47:01.470Z,18.10
2019-05-18T16:49:31.338Z,18.00
2019-05-18T16:52:01.263Z,17.90
2019-05-18T16:54:31.071Z,17.90
2019-05-18T16:57:00.847Z,18.00
2019-05-18T16:59:30.565Z,18.00
2019-05-18T17:02:00.293Z,18.10
2019-05-18T17:04:30.360Z,18.00
2019-05-18T17:07:00.217Z,18.00
2019-05-18T17:09:30.088Z,18.00
2019-05-18T17:11:59.875Z,17.80
2019-05-18T17:14:29.659Z,17.80
2019-05-18T17:17:00.786Z,17.80
2019-05-18T17:19:31.186Z,17.80
2019-05-18T17:22:01.097Z,17.80
2019-05-18T17:24:33.497Z,17.80
2019-05-18T17:27:03.244Z,17.80
2019-05-18T17:29:32.976Z,17.80
2019-05-18T17:32:02.776Z,17.80
2019-05-18T17:34:32.585Z,17.80
2019-05-18T17:37:02.769Z,17.70
2019-05-18T17:39:32.543Z,17.70
2019-05-18T17:42:05.007Z,17.60
2019-05-18T17:44:33.983Z,17.60
2019-05-18T17:47:03.802Z,17.70
2019-05-18T17:49:33.556Z,17.60
2019-05-18T17:52:03.325Z,17.70
2019-05-18T17:54:33.146Z,17.70
2019-05-18T17:57:08.497Z,17.70
2019-05-18T17:59:34.382Z,17.70
2019-05-18T18:02:04.213Z,17.60
2019-05-18T18:04:33.906Z,17.50
2019-05-18T18:07:03.942Z,17.40
2019-05-18T18:09:33.817Z,17.40
2019-05-18T18:12:03.642Z,17.50
2019-05-18T18:14:33.382Z,17.50
2019-05-18T18:17:03.107Z,17.50
2019-05-18T18:19:32.798Z,17.50
2019-05-18T18:22:02.566Z,17.40
2019-05-18T18:24:32.354Z,17.40
2019-05-18T18:27:02.151Z,17.40
2019-05-18T18:29:32.074Z,17.30
2019-05-18T18:32:02.574Z,17.40
2019-05-18T18:34:32.327Z,17.30
2019-05-18T18:37:02.081Z,17.20
2019-05-18T18:39:31.858Z,17.10
2019-05-18T18:42:01.540Z,17.20
2019-05-18T18:44:31.310Z,17.10
2019-05-18T18:47:01.033Z,17.10
2019-05-18T18:49:30.838Z,17.10
2019-05-18T18:52:00.600Z,17.00
2019-05-18T18:54:30.390Z,17.00
2019-05-18T18:57:00.109Z,16.90
2019-05-18T18:59:29.792Z,16.90
2019-05-18T19:01:59.886Z,16.80
2019-05-18T19:04:29.905Z,16.80
2019-05-18T19:06:59.690Z,16.80
2019-05-18T19:09:29.435Z,16.80
2019-05-18T19:11:59.144Z,16.70
2019-05-18T19:14:28.891Z,16.70
2019-05-18T19:16:58.612Z,16.70
2019-05-18T19:19:31.035Z,16.70
2019-05-18T19:22:00.834Z,16.70
2019-05-18T19:24:30.568Z,16.70
2019-05-18T19:27:00.301Z,16.80
2019-05-18T19:29:30.165Z,16.70
2019-05-18T19:31:59.929Z,16.70
2019-05-18T19:34:29.606Z,16.70
2019-05-18T19:36:59.360Z,16.80
2019-05-18T19:39:29.334Z,16.80
2019-05-18T19:41:59.024Z,16.80
2019-05-18T19:44:28.773Z,16.70
2019-05-18T19:46:58.558Z,16.70
2019-05-18T19:49:28.317Z,16.70
2019-05-18T19:51:58.023Z,16.70
2019-05-18T19:54:27.709Z,16.60
2019-05-18T19:56:57.558Z,16.50
2019-05-18T19:59:27.439Z,16.40
2019-05-18T20:01:57.233Z,16.40
2019-05-18T20:04:26.970Z,16.30
2019-05-18T20:06:56.754Z,16.20
2019-05-18T20:09:26.415Z,16.20
2019-05-18T20:11:56.144Z,16.20
2019-05-18T20:14:25.876Z,16.10
2019-05-18T20:16:55.849Z,16.00
2019-05-18T20:19:38.230Z,15.90
2019-05-18T20:21:57.736Z,15.90
2019-05-18T20:24:27.516Z,15.90
2019-05-18T20:26:57.294Z,15.90
2019-05-18T20:29:27.174Z,16.00
2019-05-18T20:31:57.101Z,15.90
2019-05-18T20:34:26.869Z,15.90
2019-05-18T20:36:56.833Z,15.90
2019-05-18T20:39:28.595Z,15.70
2019-05-18T20:41:58.400Z,15.70
2019-05-18T20:44:28.485Z,15.70
2019-05-18T20:46:58.554Z,15.70
2019-05-18T20:49:28.447Z,15.70
2019-05-18T20:51:58.233Z,15.70
2019-05-18T20:54:27.995Z,15.60
2019-05-18T20:56:57.742Z,15.60
2019-05-18T20:59:30.505Z,15.60
2019-05-18T21:02:00.459Z,15.60
2019-05-18T21:04:30.270Z,15.60
2019-05-18T21:07:01.318Z,15.60
2019-05-18T21:09:32.013Z,15.60
2019-05-18T21:12:03.460Z,15.60
2019-05-18T21:14:33.318Z,15.70
2019-05-18T21:17:03.160Z,15.70
2019-05-18T21:19:33.112Z,15.70
2019-05-18T21:22:02.830Z,15.70
2019-05-18T21:24:32.776Z,15.70
2019-05-18T21:27:02.803Z,15.60
2019-05-18T21:29:34.566Z,15.60
2019-05-18T21:32:06.368Z,15.60
2019-05-18T21:34:36.492Z,15.60
2019-05-18T21:37:06.266Z,15.60
2019-05-18T21:39:36.497Z,15.60
2019-05-18T21:42:06.493Z,15.70
2019-05-18T21:44:36.525Z,15.70
2019-05-18T21:47:06.437Z,15.60
2019-05-18T21:49:37.033Z,15.50
2019-05-18T21:52:07.274Z,15.60
2019-05-18T21:54:37.422Z,15.60
2019-05-18T21:57:07.180Z,15.60
2019-05-18T21:59:37.089Z,15.60
2019-05-18T22:02:07.343Z,15.60
2019-05-18T22:04:37.250Z,15.60
2019-05-18T22:07:07.032Z,15.60
2019-05-18T22:09:39.684Z,15.60
2019-05-18T22:12:10.717Z,15.50
2019-05-18T22:14:40.591Z,15.50
2019-05-18T22:17:10.317Z,15.50
2019-05-18T22:19:40.010Z,15.50
2019-05-18T22:22:09.868Z,15.40
2019-05-18T22:24:39.938Z,15.40
2019-05-18T22:27:12.545Z,15.50
2019-05-18T22:29:46.134Z,15.50
2019-05-18T22:32:16.358Z,15.50
2019-05-18T22:34:46.105Z,15.50
2019-05-18T22:37:18.335Z,15.50
2019-05-18T22:39:48.081Z,15.60
2019-05-18T22:42:17.886Z,15.50
2019-05-18T22:44:47.558Z,15.60
2019-05-18T22:47:17.478Z,15.60
2019-05-18T22:49:47.185Z,15.60
2019-05-18T22:52:16.975Z,15.50
2019-05-18T22:54:47.628Z,15.50
2019-05-18T22:57:17.425Z,15.60
2019-05-18T22:59:48.001Z,15.50
2019-05-18T23:02:17.946Z,15.50
2019-05-18T23:04:48.016Z,15.40
2019-05-18T23:07:17.793Z,15.30
2019-05-18T23:09:47.502Z,15.30
2019-05-18T23:12:17.225Z,15.30
2019-05-18T23:14:46.956Z,15.30
2019-05-18T23:17:16.819Z,15.30
2019-05-18T23:19:46.820Z,15.30
2019-05-18T23:22:16.663Z,15.20
2019-05-18T23:24:46.414Z,15.20
2019-05-18T23:27:16.167Z,15.10
2019-05-18T23:29:45.875Z,15.10
2019-05-18T23:32:15.629Z,15.10
2019-05-18T23:34:45.322Z,15.10
2019-05-18T23:37:15.161Z,15.10
2019-05-18T23:39:45.025Z,15.10
2019-05-18T23:42:14.859Z,15.10
2019-05-18T23:44:44.535Z,15.00
2019-05-18T23:47:14.261Z,15.00
2019-05-18T23:49:43.972Z,14.90
2019-05-18T23:52:13.741Z,14.90
2019-05-18T23:54:43.449Z,15.00
2019-05-18T23:57:13.267Z,15.00
2019-05-18T23:59:42.952Z,15.00
